Leni P. — A8XW5 — position and weather

sailwx.info

Track history (hours):
 
Tides and Currents Weather Stations Pressure Air Temp Water Temp Dewpoint Dewpoint Depression Visibility Wind Speed Wind Dir Waves Ship Positions

Leni P.

Last reported at 2017-Jan-08 13:31 UTC. Time now 2017-Jan-21 21:50 UTC.
Position N 27°39' W 015°15'.
Warning: this ship's position is 13 days out of date.

Length 274 m; draft 8.9 m.

Type: Tanker. MMSI: 636014986.

Date/timePositionNaut miles runAvg speedWind from/ knotsBaromVisibWave heightAir tempDewpointWater temp
2017-Jan-08 13:31N 27°39' W 015°15'1111.7
2017-Jan-08 12:33N 27°50' W 015°14'1212.2
2017-Jan-08 11:33N 28°03' W 015°14'1010.1
2017-Jan-08 10:33N 28°10' W 015°22'2 1.6
2017-Jan-08 09:33N 28°08' W 015°21'1 1.2
2017-Jan-08 08:33N 28°07' W 015°21'0 0.3
2017-Jan-08 07:33N 28°07' W 015°21'0 0.4
2017-Jan-08 06:33N 28°07' W 015°21'3 3.4
2017-Jan-08 05:33N 28°09' W 015°18'1111.5
2017-Jan-08 04:34N 28°10' W 015°05'1110.9
2017-Jan-08 03:33N 28°17' W 014°56'1312.6
2017-Jan-08 02:33N 28°29' W 014°53'1212.4
2017-Jan-08 01:33N 28°41' W 014°49'1312.8
2017-Jan-08 00:33N 28°54' W 014°46'1312.9
2017-Jan-07 23:33N 29°07' W 014°43'1313.1
2017-Jan-07 22:33N 29°19' W 014°39'1313.1
2017-Jan-07 21:33N 29°32' W 014°36'1313.0
2017-Jan-07 20:33N 29°45' W 014°32'1312.7
2017-Jan-07 19:34N 29°57' W 014°29'1312.6
2017-Jan-07 18:34N 30°09' W 014°26'13812.6
2017-Jan-07 07:33N 32°24' W 013°48'1412.7
2017-Jan-07 06:28N 32°37' W 013°45'2612.7
2017-Jan-07 04:27N 33°02' W 013°38'1112.7
2017-Jan-07 03:33N 33°13' W 013°35'  
2017-Jan-02 23:04N 49°52' W 006°02'713.8
2017-Jan-02 22:33N 49°59' W 006°02'1413.8
2017-Jan-02 21:33N 50°13' W 006°01'2712.8
2017-Jan-02 19:25N 50°40' W 006°01'9213.3
2017-Jan-02 12:32N 52°11' W 005°46'11312.5
2017-Jan-02 03:31N 54°02' W 005°07'1213.0
2017-Jan-02 02:34N 54°14' W 005°05'1313.0
2017-Jan-02 01:33N 54°27' W 005°03'1313.5
2017-Jan-02 00:34N 54°40' W 005°12'1514.5
2017-Jan-01 23:33N 54°53' W 005°23'1313.4
2017-Jan-01 22:33N 55°06' W 005°20'  
Track history (hours):
 
Tides and Currents Weather Stations Pressure Air Temp Water Temp Dewpoint Dewpoint Depression Visibility Wind Speed Wind Dir Waves Ship Positions

Leni P.

Last reported at 2017-Jan-08 13:31 UTC. Time now 2017-Jan-21 21:50 UTC.
Position N 27°39' W 015°15'.
Warning: this ship's position is 13 days out of date.

Length 274 m; draft 8.9 m.

Type: Tanker. MMSI: 636014986.

Date/timePositionNaut miles runAvg speedWind from/ knotsBaromVisibWave heightAir tempDewpointWater temp
2017-Jan-08 13:31N 27°39' W 015°15'1111.7
2017-Jan-08 12:33N 27°50' W 015°14'1212.2
2017-Jan-08 11:33N 28°03' W 015°14'1010.1
2017-Jan-08 10:33N 28°10' W 015°22'2 1.6
2017-Jan-08 09:33N 28°08' W 015°21'1 1.2
2017-Jan-08 08:33N 28°07' W 015°21'0 0.3
2017-Jan-08 07:33N 28°07' W 015°21'0 0.4
2017-Jan-08 06:33N 28°07' W 015°21'3 3.4
2017-Jan-08 05:33N 28°09' W 015°18'1111.5
2017-Jan-08 04:34N 28°10' W 015°05'1110.9
2017-Jan-08 03:33N 28°17' W 014°56'1312.6
2017-Jan-08 02:33N 28°29' W 014°53'1212.4
2017-Jan-08 01:33N 28°41' W 014°49'1312.8
2017-Jan-08 00:33N 28°54' W 014°46'1312.9
2017-Jan-07 23:33N 29°07' W 014°43'1313.1
2017-Jan-07 22:33N 29°19' W 014°39'1313.1
2017-Jan-07 21:33N 29°32' W 014°36'1313.0
2017-Jan-07 20:33N 29°45' W 014°32'1312.7
2017-Jan-07 19:34N 29°57' W 014°29'1312.6
2017-Jan-07 18:34N 30°09' W 014°26'13812.6
2017-Jan-07 07:33N 32°24' W 013°48'1412.7
2017-Jan-07 06:28N 32°37' W 013°45'2612.7
2017-Jan-07 04:27N 33°02' W 013°38'1112.7
2017-Jan-07 03:33N 33°13' W 013°35'  
2017-Jan-02 23:04N 49°52' W 006°02'713.8
2017-Jan-02 22:33N 49°59' W 006°02'1413.8
2017-Jan-02 21:33N 50°13' W 006°01'2712.8
2017-Jan-02 19:25N 50°40' W 006°01'9213.3
2017-Jan-02 12:32N 52°11' W 005°46'11312.5
2017-Jan-02 03:31N 54°02' W 005°07'1213.0
2017-Jan-02 02:34N 54°14' W 005°05'1313.0
2017-Jan-02 01:33N 54°27' W 005°03'1313.5
2017-Jan-02 00:34N 54°40' W 005°12'1514.5
2017-Jan-01 23:33N 54°53' W 005°23'1313.4
2017-Jan-01 22:33N 55°06' W 005°20'  

Dump ship's entire track history